Time;durP1;ratioP1;P1;durP2;ratioP2;P2;SDS_P1;SDS_P2;PMS_P1;PMS_P2;Temp;Humidity;BMP_temperature;BMP_pressure;BME280_temperature;BME280_humidity;BME280_pressure;Samples;Min_cycle;Max_cycle;Signal;HPM_P1;HPM_P2
2021/10/07 00:01:16;;;;;;;9.43;7.73;;;10.60;99.90;;;;;;4997801;28;20223;-77
2021/10/07 00:03:41;;;;;;;15.07;7.97;;;10.70;99.90;;;;;;4997445;28;20199;-78
2021/10/07 00:06:07;;;;;;;12.07;8.03;;;10.60;99.90;;;;;;4997394;28;20199;-77
2021/10/07 00:08:33;;;;;;;12.40;7.90;;;10.60;99.90;;;;;;4996960;28;20611;-76
2021/10/07 00:10:58;;;;;;;11.87;8.00;;;10.60;99.90;;;;;;4997168;28;20168;-77
2021/10/07 00:13:24;;;;;;;15.83;7.87;;;10.60;99.90;;;;;;5013296;28;20196;-77
2021/10/07 00:15:49;;;;;;;10.43;7.37;;;10.60;99.90;;;;;;4997342;28;20209;-77
2021/10/07 00:18:16;;;;;;;14.43;8.03;;;10.60;99.90;;;;;;4997156;28;20673;-75
2021/10/07 00:20:42;;;;;;;10.97;7.67;;;10.60;99.90;;;;;;4981479;28;20223;-77
2021/10/07 00:23:08;;;;;;;11.17;7.40;;;10.60;99.90;;;;;;4997085;28;20199;-77
2021/10/07 00:25:33;;;;;;;10.27;7.93;;;10.60;99.90;;;;;;4997368;28;20180;-76
2021/10/07 00:28:07;;;;;;;12.43;7.73;;;10.60;99.90;;;;;;5013207;28;20179;-77
2021/10/07 00:30:33;;;;;;;12.30;8.07;;;10.60;99.90;;;;;;5013638;28;20648;-77
2021/10/07 00:40:46;;;;;;;14.27;7.90;;;10.60;99.90;;;;;;4999929;28;20222;-77
2021/10/07 00:43:11;;;;;;;11.57;7.70;;;10.60;99.90;;;;;;5013032;28;20661;-77
2021/10/07 00:45:37;;;;;;;13.03;8.47;;;10.60;99.90;;;;;;5013041;28;20213;-77
2021/10/07 00:48:02;;;;;;;12.47;8.30;;;10.60;99.90;;;;;;4980259;28;20176;-77
2021/10/07 00:50:28;;;;;;;12.77;8.40;;;10.60;99.90;;;;;;4996386;28;20182;-77
2021/10/07 00:52:54;;;;;;;10.77;8.23;;;10.60;99.90;;;;;;5012619;28;20270;-77
2021/10/07 00:55:19;;;;;;;12.30;8.47;;;10.60;99.90;;;;;;5013984;28;20254;-77
2021/10/07 00:57:45;;;;;;;11.03;8.20;;;10.60;99.90;;;;;;4996048;28;20175;-74
2021/10/07 01:00:11;;;;;;;12.13;8.60;;;10.60;99.90;;;;;;4996404;28;20551;-77
2021/10/07 01:02:36;;;;;;;11.30;8.47;;;10.60;99.90;;;;;;5013631;28;20210;-76
2021/10/07 01:05:02;;;;;;;12.90;8.20;;;10.60;99.90;;;;;;4996299;28;20183;-77
2021/10/07 01:07:28;;;;;;;10.67;9.10;;;10.50;99.90;;;;;;4995986;28;20800;-77
2021/10/07 01:09:53;;;;;;;14.93;9.10;;;10.50;99.90;;;;;;4978770;28;20655;-77
2021/10/07 01:12:19;;;;;;;13.03;9.20;;;10.50;99.90;;;;;;4979884;28;20195;-77
2021/10/07 01:14:53;;;;;;;13.37;9.50;;;10.50;99.90;;;;;;4979978;28;20168;-77
2021/10/07 01:17:20;;;;;;;13.53;9.97;;;10.60;99.90;;;;;;4997131;28;20172;-77
2021/10/07 01:19:47;;;;;;;16.00;9.37;;;10.50;99.90;;;;;;4995870;28;20181;-77
2021/10/07 01:22:13;;;;;;;12.20;9.00;;;10.60;99.90;;;;;;4996072;28;20253;-76
2021/10/07 01:24:39;;;;;;;13.80;9.20;;;10.50;99.90;;;;;;4995957;28;20183;-77
2021/10/07 01:27:04;;;;;;;13.70;9.80;;;10.60;99.90;;;;;;4979633;28;20199;-77
2021/10/07 01:29:30;;;;;;;18.50;10.10;;;10.50;99.90;;;;;;4995344;28;20179;-77
2021/10/07 01:31:56;;;;;;;12.90;9.83;;;10.60;99.90;;;;;;5011888;28;20222;-77
2021/10/07 01:34:26;;;;;;;15.60;10.70;;;10.50;99.90;;;;;;5012008;28;20642;-76
2021/10/07 01:36:51;;;;;;;13.80;9.13;;;10.50;99.90;;;;;;5011989;28;20202;-77
2021/10/07 01:39:17;;;;;;;13.00;10.37;;;10.50;99.90;;;;;;4995573;28;20195;-77
2021/10/07 01:41:43;;;;;;;20.47;11.20;;;10.40;99.90;;;;;;4996007;28;20254;-76
2021/10/07 01:44:08;;;;;;;13.57;11.10;;;10.30;99.90;;;;;;4995529;28;20650;-77
2021/10/07 01:46:34;;;;;;;16.40;10.73;;;10.30;99.90;;;;;;5011791;28;20616;-77
2021/10/07 01:49:00;;;;;;;17.27;11.47;;;10.30;99.90;;;;;;4995348;28;20591;-77
2021/10/07 01:51:26;;;;;;;16.20;11.97;;;10.30;99.90;;;;;;4995422;28;20179;-77
2021/10/07 01:53:51;;;;;;;23.43;12.63;;;10.30;99.90;;;;;;4978904;28;20698;-77
2021/10/07 01:56:17;;;;;;;17.00;12.00;;;10.30;99.90;;;;;;4995333;28;20415;-76
2021/10/07 01:58:43;;;;;;;23.73;12.97;;;10.30;99.90;;;;;;5011396;28;20236;-77
2021/10/07 02:01:08;;;;;;;18.67;12.53;;;10.30;99.90;;;;;;4995207;28;20171;-77
2021/10/07 02:03:34;;;;;;;17.33;12.97;;;10.30;99.90;;;;;;4995028;28;20636;-77
2021/10/07 02:05:59;;;;;;;15.30;11.50;;;10.30;99.90;;;;;;5011515;28;20264;-76
2021/10/07 02:08:25;;;;;;;21.17;13.73;;;10.30;99.90;;;;;;5011373;28;20176;-77
2021/10/07 02:10:50;;;;;;;15.30;12.00;;;10.30;99.90;;;;;;5011413;28;20182;-77
2021/10/07 02:13:16;;;;;;;15.93;12.73;;;10.30;99.90;;;;;;5011415;28;20192;-76
2021/10/07 02:15:41;;;;;;;22.33;13.33;;;10.30;99.90;;;;;;4994857;28;20175;-77
2021/10/07 02:18:07;;;;;;;20.60;13.07;;;10.30;99.90;;;;;;4994655;28;20438;-77
2021/10/07 02:20:33;;;;;;;17.80;13.03;;;10.30;99.90;;;;;;4994715;28;20172;-77
2021/10/07 02:22:58;;;;;;;23.83;13.60;;;10.40;99.90;;;;;;5011148;28;20202;-77
2021/10/07 02:25:24;;;;;;;22.40;13.97;;;10.30;99.90;;;;;;5011219;28;20188;-76
2021/10/07 02:27:49;;;;;;;23.07;14.33;;;10.30;99.90;;;;;;4994359;28;20203;-77
2021/10/07 02:30:16;;;;;;;20.37;13.73;;;10.30;99.90;;;;;;4994753;28;20209;-77
2021/10/07 02:32:41;;;;;;;20.73;14.90;;;10.40;99.90;;;;;;5027437;28;20670;-77
2021/10/07 02:35:07;;;;;;;19.70;14.30;;;10.30;99.90;;;;;;4994929;28;20186;-77
2021/10/07 02:37:33;;;;;;;23.43;14.67;;;10.30;99.90;;;;;;4978452;28;20663;-77
2021/10/07 02:39:59;;;;;;;21.43;13.57;;;10.30;99.90;;;;;;4994459;28;20179;-77
2021/10/07 02:42:24;;;;;;;23.67;14.83;;;10.40;99.90;;;;;;5010945;28;20199;-76
2021/10/07 02:44:50;;;;;;;29.60;14.60;;;10.40;99.90;;;;;;4994595;28;20183;-77
2021/10/07 02:47:15;;;;;;;25.30;15.27;;;10.40;99.90;;;;;;5010896;28;20619;-77
2021/10/07 02:49:41;;;;;;;29.40;15.27;;;10.40;99.90;;;;;;4993726;28;20529;-77
2021/10/07 02:52:07;;;;;;;24.37;15.60;;;10.40;99.90;;;;;;4978174;28;20585;-77
2021/10/07 02:54:32;;;;;;;25.63;15.33;;;10.40;99.90;;;;;;4994599;28;20643;-77
2021/10/07 02:56:58;;;;;;;24.40;15.53;;;10.40;99.90;;;;;;4994468;28;20195;-77
2021/10/07 02:59:23;;;;;;;31.10;16.70;;;10.30;99.90;;;;;;4994363;28;20182;-77
2021/10/07 03:01:49;;;;;;;39.10;16.33;;;10.30;99.90;;;;;;4994713;28;20286;-76
2021/10/07 03:04:15;;;;;;;33.07;18.20;;;10.40;99.90;;;;;;4994290;28;20171;-77
2021/10/07 03:06:41;;;;;;;34.20;16.80;;;10.40;99.90;;;;;;5010994;28;20195;-76
2021/10/07 03:09:06;;;;;;;34.07;16.90;;;10.40;99.90;;;;;;4978013;28;20182;-77
2021/10/07 03:11:32;;;;;;;27.40;16.37;;;10.30;99.90;;;;;;4994415;28;20644;-77
2021/10/07 03:13:58;;;;;;;31.27;16.87;;;10.40;99.90;;;;;;5010341;28;20191;-77
2021/10/07 03:16:23;;;;;;;26.93;16.23;;;10.30;99.90;;;;;;4994512;28;20189;-76
2021/10/07 03:18:49;;;;;;;30.00;16.40;;;10.40;99.90;;;;;;5010511;28;20555;-78
2021/10/07 03:21:14;;;;;;;34.30;17.73;;;10.30;99.90;;;;;;5010711;28;20650;-77
2021/10/07 03:23:40;;;;;;;31.50;18.13;;;10.30;99.90;;;;;;4994284;28;20242;-77
2021/10/07 03:26:05;;;;;;;36.77;18.67;;;10.30;99.90;;;;;;4993977;28;20207;-76
2021/10/07 03:28:31;;;;;;;30.50;17.57;;;10.30;99.90;;;;;;4994185;28;20172;-77
2021/10/07 03:30:56;;;;;;;36.40;19.23;;;10.30;99.90;;;;;;5010601;28;20180;-77
2021/10/07 03:33:22;;;;;;;32.90;18.37;;;10.20;99.90;;;;;;4997618;28;20203;-77
2021/10/07 03:35:47;;;;;;;35.50;19.77;;;10.20;99.90;;;;;;4997869;28;20310;-77
2021/10/07 03:38:13;;;;;;;46.40;19.87;;;10.20;99.90;;;;;;4998049;28;20552;-77
2021/10/07 03:40:38;;;;;;;37.80;19.93;;;10.20;99.90;;;;;;5014179;28;20180;-77
2021/10/07 03:43:04;;;;;;;37.17;19.30;;;10.20;99.90;;;;;;4997710;28;20203;-77
2021/10/07 03:45:29;;;;;;;35.27;20.00;;;10.20;99.90;;;;;;4997538;28;20176;-77
2021/10/07 03:47:55;;;;;;;35.93;20.23;;;10.30;99.90;;;;;;5013880;28;20701;-77
2021/10/07 03:50:20;;;;;;;54.67;20.80;;;10.30;99.90;;;;;;4997835;28;20187;-77
2021/10/07 03:52:46;;;;;;;36.07;19.57;;;10.20;99.90;;;;;;4998082;28;20211;-77
2021/10/07 03:55:12;;;;;;;35.17;20.43;;;10.30;99.90;;;;;;4997662;28;20221;-77
2021/10/07 03:57:37;;;;;;;44.87;21.23;;;10.30;99.90;;;;;;4997172;28;20234;-77
2021/10/07 04:00:04;;;;;;;35.07;20.10;;;10.30;99.90;;;;;;4997263;28;20269;-77
2021/10/07 04:02:30;;;;;;;44.20;20.60;;;10.30;99.90;;;;;;4997552;28;20250;-77
2021/10/07 04:04:55;;;;;;;35.90;19.40;;;10.30;99.90;;;;;;4997496;28;20601;-77
2021/10/07 04:07:21;;;;;;;38.07;20.40;;;10.20;99.90;;;;;;4981070;28;20586;-77
2021/10/07 04:09:46;;;;;;;36.13;19.67;;;10.20;99.90;;;;;;4997168;28;20643;-76
2021/10/07 04:12:12;;;;;;;38.43;19.70;;;10.20;99.90;;;;;;4996898;28;20195;-77
2021/10/07 04:14:37;;;;;;;37.20;20.70;;;10.20;99.90;;;;;;5014709;28;20226;-77
2021/10/07 04:17:03;;;;;;;33.87;18.10;;;10.20;99.90;;;;;;4997234;28;20653;-77
2021/10/07 04:19:28;;;;;;;37.97;20.03;;;10.20;99.90;;;;;;5013419;28;20186;-76
2021/10/07 04:21:54;;;;;;;34.70;19.30;;;10.20;99.90;;;;;;4997119;28;20694;-77
2021/10/07 04:24:20;;;;;;;33.80;19.23;;;10.20;99.90;;;;;;5013154;28;20187;-77
2021/10/07 04:26:45;;;;;;;34.30;19.43;;;10.30;99.90;;;;;;4996823;28;20611;-77
2021/10/07 04:29:11;;;;;;;37.80;19.73;;;10.30;99.90;;;;;;4996955;28;20179;-76
2021/10/07 04:31:38;;;;;;;32.87;19.57;;;10.20;99.90;;;;;;4980598;28;20541;-77
2021/10/07 04:34:04;;;;;;;37.67;20.20;;;10.20;99.90;;;;;;5013215;28;20172;-76
2021/10/07 04:36:29;;;;;;;40.63;20.03;;;10.20;99.90;;;;;;4980712;28;20529;-76
2021/10/07 04:38:55;;;;;;;53.83;22.53;;;10.30;99.90;;;;;;4996343;28;20612;-77
2021/10/07 04:41:20;;;;;;;47.97;21.60;;;10.30;99.90;;;;;;4996616;28;20222;-77
2021/10/07 04:43:46;;;;;;;42.70;20.60;;;10.30;99.90;;;;;;5012776;28;20196;-77
2021/10/07 04:46:11;;;;;;;47.33;21.87;;;10.30;99.90;;;;;;5012374;28;20597;-76
2021/10/07 04:48:37;;;;;;;51.60;21.97;;;10.30;99.90;;;;;;4995807;28;20625;-77
2021/10/07 04:51:02;;;;;;;51.03;21.93;;;10.30;99.90;;;;;;5032539;28;20175;-77
2021/10/07 04:53:28;;;;;;;50.57;21.80;;;10.30;99.90;;;;;;5004534;28;20230;-77
2021/10/07 04:55:56;;;;;;;45.43;21.07;;;10.40;99.90;;;;;;4996422;28;20237;-76
2021/10/07 04:58:22;;;;;;;42.80;20.53;;;10.30;99.90;;;;;;5012677;28;20172;-76
2021/10/07 05:00:48;;;;;;;63.37;23.63;;;10.30;99.90;;;;;;4996503;28;20237;-77
2021/10/07 05:03:13;;;;;;;50.47;21.27;;;10.30;99.90;;;;;;5029078;28;20226;-76
2021/10/07 05:05:39;;;;;;;49.63;20.77;;;10.30;99.90;;;;;;4980197;28;20187;-76
2021/10/07 05:08:05;;;;;;;59.93;22.77;;;10.30;99.90;;;;;;5012623;28;20195;-76
2021/10/07 05:10:31;;;;;;;53.47;22.00;;;10.30;99.90;;;;;;5014295;28;20172;-76
2021/10/07 05:12:57;;;;;;;49.97;21.90;;;10.40;99.90;;;;;;4996420;28;20206;-77
2021/10/07 05:15:24;;;;;;;60.97;22.87;;;10.30;99.90;;;;;;5012837;28;20255;-77
2021/10/07 05:17:50;;;;;;;50.13;22.63;;;10.30;99.90;;;;;;5006407;28;20197;-76
2021/10/07 05:20:16;;;;;;;86.03;24.30;;;10.30;99.90;;;;;;5031887;28;20182;-75
2021/10/07 05:22:42;;;;;;;62.30;22.73;;;10.30;99.90;;;;;;5020094;28;20203;-78
2021/10/07 05:25:07;;;;;;;67.57;23.40;;;10.30;99.90;;;;;;5009686;28;20669;-78
2021/10/07 05:27:33;;;;;;;49.77;22.13;;;10.30;99.90;;;;;;5016004;28;20689;-78
2021/10/07 05:29:58;;;;;;;56.20;22.77;;;10.30;99.90;;;;;;5015872;28;20171;-77
2021/10/07 05:32:24;;;;;;;48.87;21.80;;;10.30;99.90;;;;;;5012552;28;20204;-77
2021/10/07 05:34:49;;;;;;;49.43;22.33;;;10.30;99.90;;;;;;5004026;28;20183;-76
2021/10/07 05:37:15;;;;;;;61.33;22.00;;;10.30;99.90;;;;;;5013435;28;20643;-79
2021/10/07 05:39:41;;;;;;;70.60;23.70;;;10.30;99.90;;;;;;4979780;28;20604;-76
2021/10/07 05:42:07;;;;;;;53.07;21.13;;;10.20;99.90;;;;;;5018115;28;20846;-77
2021/10/07 05:44:32;;;;;;;51.13;22.03;;;10.20;99.90;;;;;;5044339;28;20239;-77
2021/10/07 05:46:58;;;;;;;47.17;19.50;;;10.30;99.90;;;;;;5032998;28;20215;-77
2021/10/07 05:49:25;;;;;;;50.67;21.83;;;10.20;99.90;;;;;;5028718;28;20309;-76
2021/10/07 05:51:51;;;;;;;44.07;19.90;;;10.30;99.90;;;;;;5031482;28;20195;-76
2021/10/07 05:54:17;;;;;;;46.67;20.80;;;10.30;99.90;;;;;;5027748;28;20574;-77
2021/10/07 05:56:43;;;;;;;42.87;20.10;;;10.30;99.90;;;;;;5028088;28;20639;-77
2021/10/07 05:59:08;;;;;;;49.20;20.40;;;10.30;99.90;;;;;;5020755;28;20183;-77
2021/10/07 06:01:34;;;;;;;44.33;20.53;;;10.20;99.90;;;;;;5022997;28;20175;-77
2021/10/07 06:03:59;;;;;;;52.77;21.07;;;10.20;99.90;;;;;;5027575;28;20579;-76
2021/10/07 06:06:25;;;;;;;53.40;21.67;;;10.20;99.90;;;;;;5029418;28;20194;-80
2021/10/07 06:08:50;;;;;;;51.90;20.93;;;10.30;99.90;;;;;;5015530;28;20231;-80
2021/10/07 06:11:16;;;;;;;50.20;20.43;;;10.30;99.90;;;;;;4998432;28;20183;-80
2021/10/07 06:13:42;;;;;;;46.50;20.93;;;10.30;99.90;;;;;;4984728;28;20258;-77
2021/10/07 06:16:07;;;;;;;54.23;22.53;;;10.40;99.90;;;;;;5025953;28;20192;-78
2021/10/07 06:18:34;;;;;;;46.17;20.10;;;10.30;99.90;;;;;;5014958;28;20190;-77
2021/10/07 06:21:00;;;;;;;57.53;21.87;;;10.30;99.90;;;;;;5027989;28;20191;-76
2021/10/07 06:23:26;;;;;;;50.13;20.97;;;10.30;99.90;;;;;;5010942;28;20207;-75
2021/10/07 06:25:51;;;;;;;54.73;22.73;;;10.30;99.90;;;;;;4994849;28;20187;-76
2021/10/07 06:28:17;;;;;;;52.37;21.97;;;10.30;99.90;;;;;;5027729;28;20186;-75
2021/10/07 06:30:42;;;;;;;56.63;23.57;;;10.30;99.90;;;;;;5016287;28;20182;-75
2021/10/07 06:33:08;;;;;;;58.57;24.10;;;10.30;99.90;;;;;;5012304;28;20300;-75
2021/10/07 06:35:33;;;;;;;46.93;22.33;;;10.40;99.90;;;;;;5030945;28;20179;-75
2021/10/07 06:37:59;;;;;;;47.83;21.73;;;10.40;99.90;;;;;;5014379;28;20598;-74
2021/10/07 06:40:24;;;;;;;42.00;20.67;;;10.40;99.90;;;;;;5015154;28;20187;-77
2021/10/07 06:42:50;;;;;;;42.93;21.80;;;10.50;99.90;;;;;;5032024;28;20199;-82
2021/10/07 06:45:15;;;;;;;44.07;21.13;;;10.60;99.90;;;;;;5017492;28;20258;-78
2021/10/07 06:47:41;;;;;;;31.10;18.40;;;10.50;99.90;;;;;;5015181;28;20207;-77
2021/10/07 06:50:09;;;;;;;31.10;17.77;;;10.50;99.90;;;;;;5031209;28;20181;-75
2021/10/07 06:52:34;;;;;;;32.63;19.17;;;10.50;99.90;;;;;;5030691;28;20221;-75
2021/10/07 06:55:01;;;;;;;30.63;18.33;;;10.50;99.90;;;;;;5014314;28;20175;-76
2021/10/07 06:57:26;;;;;;;34.07;18.90;;;10.50;99.90;;;;;;5014279;28;20241;-75
2021/10/07 06:59:52;;;;;;;31.47;19.87;;;10.50;99.90;;;;;;5014096;28;20179;-76
2021/10/07 07:02:17;;;;;;;32.00;20.13;;;10.60;99.90;;;;;;5014241;28;20199;-77
2021/10/07 07:04:43;;;;;;;29.23;19.17;;;10.60;99.90;;;;;;5030337;28;20529;-76
2021/10/07 07:07:08;;;;;;;31.30;18.83;;;10.60;99.90;;;;;;5017351;28;20688;-75
2021/10/07 07:09:34;;;;;;;32.43;19.83;;;10.60;99.90;;;;;;5034399;28;20270;-76
2021/10/07 07:11:59;;;;;;;33.73;19.13;;;10.70;99.90;;;;;;5017831;28;20226;-75
2021/10/07 07:14:25;;;;;;;32.23;19.80;;;10.70;99.90;;;;;;5018102;28;20213;-76
2021/10/07 07:16:50;;;;;;;29.60;18.67;;;10.70;99.90;;;;;;5035283;28;20179;-75
2021/10/07 07:19:16;;;;;;;31.67;19.27;;;10.80;99.90;;;;;;5001785;28;20277;-76
2021/10/07 07:21:41;;;;;;;29.83;18.93;;;10.80;99.90;;;;;;5015912;28;20277;-75
2021/10/07 07:24:07;;;;;;;30.03;19.10;;;10.80;99.90;;;;;;5035545;28;20262;-74
2021/10/07 07:26:33;;;;;;;28.87;18.47;;;10.90;99.90;;;;;;5034871;28;20207;-75
2021/10/07 07:28:59;;;;;;;32.97;18.47;;;10.80;99.90;;;;;;5035288;28;20567;-76
2021/10/07 07:31:25;;;;;;;30.20;19.37;;;10.80;99.90;;;;;;5019997;28;20191;-77
2021/10/07 07:33:51;;;;;;;30.50;18.20;;;10.80;99.90;;;;;;4999528;28;20278;-77
2021/10/07 07:36:17;;;;;;;25.90;16.93;;;10.80;99.90;;;;;;4998676;28;20219;-77
2021/10/07 07:38:43;;;;;;;27.43;17.93;;;10.80;99.90;;;;;;4981600;28;20218;-77
2021/10/07 07:41:11;;;;;;;28.70;18.73;;;10.80;99.90;;;;;;5014132;28;20659;-77
2021/10/07 07:43:38;;;;;;;25.37;17.27;;;10.90;99.90;;;;;;5014480;28;20203;-77
2021/10/07 07:46:03;;;;;;;25.63;17.70;;;10.90;99.90;;;;;;4998992;28;20670;-77
2021/10/07 07:48:29;;;;;;;26.97;17.47;;;10.90;99.90;;;;;;4982058;28;20203;-79
2021/10/07 07:50:54;;;;;;;29.57;17.93;;;10.90;99.90;;;;;;5015931;28;20641;-78
2021/10/07 07:53:20;;;;;;;26.90;17.77;;;10.80;99.90;;;;;;5017269;28;20210;-77
2021/10/07 07:55:46;;;;;;;28.83;17.93;;;10.80;99.90;;;;;;5017609;28;20194;-78
2021/10/07 07:58:12;;;;;;;27.53;17.30;;;10.90;99.90;;;;;;5017646;28;20187;-80
2021/10/07 08:00:38;;;;;;;28.60;17.40;;;10.90;99.90;;;;;;5010842;28;20273;-77
2021/10/07 08:03:03;;;;;;;31.30;20.50;;;10.90;99.90;;;;;;5017306;28;20702;-77
2021/10/07 08:05:29;;;;;;;29.10;17.63;;;10.90;99.90;;;;;;5015005;28;20646;-77
2021/10/07 08:07:55;;;;;;;31.73;18.60;;;10.90;99.90;;;;;;4998057;28;20580;-77
2021/10/07 08:10:20;;;;;;;31.10;18.53;;;10.90;99.90;;;;;;4981515;28;20294;-77
2021/10/07 08:12:46;;;;;;;30.87;18.37;;;10.90;99.90;;;;;;5012288;28;20297;-78
2021/10/07 08:15:11;;;;;;;31.23;19.17;;;11.00;99.90;;;;;;5000912;28;20175;-78
2021/10/07 08:17:38;;;;;;;30.03;19.20;;;11.10;99.90;;;;;;5032926;28;20179;-77
2021/10/07 08:20:04;;;;;;;29.67;18.03;;;11.10;99.90;;;;;;5017673;28;20654;-77
2021/10/07 08:22:29;;;;;;;30.77;18.23;;;11.10;99.90;;;;;;5017471;28;20215;-77
2021/10/07 08:24:55;;;;;;;28.97;18.53;;;11.00;99.90;;;;;;5017836;28;20205;-77
2021/10/07 08:27:20;;;;;;;32.63;19.50;;;11.10;99.90;;;;;;5009174;28;20219;-72
2021/10/07 08:29:46;;;;;;;29.50;17.90;;;11.10;99.90;;;;;;5029191;28;20191;-78
2021/10/07 08:32:12;;;;;;;28.60;17.80;;;11.20;99.90;;;;;;5028707;28;20207;-78
2021/10/07 08:34:37;;;;;;;31.17;19.07;;;11.30;99.90;;;;;;5006561;28;20694;-77
2021/10/07 08:37:04;;;;;;;29.53;18.37;;;11.20;99.90;;;;;;4994550;28;20191;-81
2021/10/07 08:39:30;;;;;;;32.97;19.03;;;11.20;99.90;;;;;;5014486;28;20175;-80
2021/10/07 08:41:56;;;;;;;31.53;19.40;;;11.30;99.90;;;;;;4989764;28;20210;-80
2021/10/07 08:44:21;;;;;;;33.57;19.40;;;11.30;99.90;;;;;;5002192;28;20262;-79
2021/10/07 08:46:48;;;;;;;29.07;18.10;;;11.40;99.90;;;;;;5017469;28;20288;-80
2021/10/07 08:49:14;;;;;;;32.10;18.00;;;11.40;99.90;;;;;;5001902;28;20197;-80
2021/10/07 08:51:41;;;;;;;31.97;19.80;;;11.40;99.90;;;;;;5001054;28;20183;-80
2021/10/07 08:54:06;;;;;;;30.30;19.07;;;11.50;99.90;;;;;;4981396;28;20183;-80
2021/10/07 08:56:32;;;;;;;32.27;19.43;;;11.50;99.90;;;;;;4997264;28;20250;-80
2021/10/07 08:59:00;;;;;;;33.77;19.37;;;11.50;99.90;;;;;;4996829;28;20183;-80
2021/10/07 09:01:37;;;;;;;29.93;19.20;;;11.60;99.90;;;;;;4981771;28;20183;-80
2021/10/07 09:04:21;;;;;;;30.10;18.23;;;11.60;99.90;;;;;;5014419;28;20274;-80
2021/10/07 09:06:47;;;;;;;29.10;17.40;;;11.70;99.90;;;;;;5017025;28;20291;-81
2021/10/07 09:09:13;;;;;;;30.00;17.93;;;11.70;99.90;;;;;;5001077;28;20610;-81
2021/10/07 09:11:39;;;;;;;34.43;20.07;;;11.70;99.90;;;;;;5001105;28;20183;-80
2021/10/07 09:14:06;;;;;;;32.67;18.97;;;11.80;99.90;;;;;;5000924;28;20175;-80
2021/10/07 09:16:46;;;;;;;29.20;18.40;;;11.90;99.90;;;;;;5000850;28;20214;-80
2021/10/07 09:19:16;;;;;;;28.57;17.67;;;11.80;99.90;;;;;;5000971;28;20180;-80
2021/10/07 09:21:43;;;;;;;30.93;18.47;;;11.80;99.90;;;;;;5001728;28;20156;-80
2021/10/07 09:24:36;;;;;;;34.80;20.37;;;11.80;99.90;;;;;;5000501;28;20171;-80
2021/10/07 09:27:03;;;;;;;33.60;19.17;;;11.80;99.90;;;;;;5032621;28;20253;-80
2021/10/07 09:29:41;;;;;;;33.80;20.13;;;11.80;99.90;;;;;;4999391;28;20171;-80
2021/10/07 09:32:07;;;;;;;33.13;20.77;;;11.80;99.90;;;;;;5032765;28;20196;-80
2021/10/07 09:34:40;;;;;;;32.90;19.43;;;11.90;99.90;;;;;;5000055;28;20184;-80
2021/10/07 09:37:28;;;;;;;30.23;19.53;;;11.90;99.90;;;;;;5016145;28;20651;-80
2021/10/07 09:39:58;;;;;;;33.10;20.07;;;11.90;99.90;;;;;;5016239;28;20164;-81
2021/10/07 09:42:35;;;;;;;30.77;19.33;;;12.00;99.90;;;;;;5000556;28;20199;-80
2021/10/07 09:45:12;;;;;;;31.60;19.40;;;12.10;99.90;;;;;;4999917;28;20557;-81
2021/10/07 09:47:48;;;;;;;29.97;18.67;;;12.10;99.90;;;;;;5002172;28;20187;-78
2021/10/07 09:50:17;;;;;;;29.73;19.13;;;12.10;99.90;;;;;;5000040;28;20175;-82
2021/10/07 09:52:43;;;;;;;27.17;17.80;;;12.20;99.90;;;;;;5020942;28;20214;-80
2021/10/07 09:55:13;;;;;;;26.30;17.70;;;12.20;99.90;;;;;;5076203;23;20234;-82
2021/10/07 09:57:58;;;;;;;29.30;17.90;;;12.30;99.90;;;;;;5045880;28;20724;-79
2021/10/07 10:00:29;;;;;;;26.10;16.97;;;12.40;99.90;;;;;;5054768;28;20182;-81
2021/10/07 10:02:56;;;;;;;27.43;17.37;;;12.40;99.90;;;;;;5036696;28;20183;-81
2021/10/07 10:05:21;;;;;;;26.40;17.57;;;12.40;99.90;;;;;;5032693;28;20237;-81
2021/10/07 10:07:47;;;;;;;28.70;17.80;;;12.40;99.90;;;;;;5015911;28;20233;-80
2021/10/07 10:10:13;;;;;;;29.10;17.53;;;12.40;99.90;;;;;;5016277;28;20211;-80
2021/10/07 10:12:39;;;;;;;25.40;15.63;;;12.40;99.90;;;;;;5016504;28;20676;-79
2021/10/07 10:15:06;;;;;;;26.67;16.37;;;12.40;99.90;;;;;;5015982;28;20993;-80
2021/10/07 10:17:34;;;;;;;25.07;15.30;;;12.40;99.90;;;;;;5016018;28;20289;-81
2021/10/07 10:19:59;;;;;;;27.03;16.60;;;12.50;99.90;;;;;;5016195;28;20258;-81
2021/10/07 10:22:25;;;;;;;24.53;16.23;;;12.60;99.90;;;;;;5016065;28;20205;-81
2021/10/07 10:24:51;;;;;;;25.17;16.17;;;12.60;99.90;;;;;;5016050;28;20629;-81
2021/10/07 10:27:16;;;;;;;24.27;15.70;;;12.60;99.90;;;;;;5016082;28;20202;-81
2021/10/07 10:29:42;;;;;;;23.03;15.87;;;12.60;99.90;;;;;;5015886;28;20171;-80
2021/10/07 10:32:09;;;;;;;24.83;17.20;;;12.70;99.90;;;;;;5015926;28;20182;-81
2021/10/07 10:34:45;;;;;;;24.70;15.03;;;12.70;99.90;;;;;;5016020;28;20546;-81
2021/10/07 10:37:11;;;;;;;24.87;15.27;;;12.70;99.90;;;;;;5024329;28;20198;-82
2021/10/07 10:39:44;;;;;;;21.80;15.27;;;12.80;99.90;;;;;;4996013;28;20191;-81
2021/10/07 10:42:30;;;;;;;22.07;14.83;;;12.80;99.90;;;;;;5015676;28;20262;-81
2021/10/07 10:44:56;;;;;;;27.03;15.53;;;12.90;99.90;;;;;;5032154;28;20238;-82
2021/10/07 10:47:28;;;;;;;25.03;16.10;;;12.90;99.90;;;;;;5032543;28;20206;-82
2021/10/07 10:49:55;;;;;;;24.67;16.53;;;12.90;99.90;;;;;;5053686;28;20246;-83
2021/10/07 10:52:35;;;;;;;25.07;16.73;;;12.90;99.90;;;;;;5051635;28;20183;-82
2021/10/07 10:55:07;;;;;;;27.30;15.97;;;12.90;99.90;;;;;;5038867;28;20222;-82
2021/10/07 10:57:44;;;;;;;25.67;15.60;;;12.90;99.90;;;;;;5013449;28;20229;-84
2021/10/07 11:00:19;;;;;;;26.70;16.53;;;13.00;99.90;;;;;;5024818;28;20174;-82
2021/10/07 11:02:48;;;;;;;23.73;15.10;;;13.00;99.90;;;;;;5014889;28;20619;-81
2021/10/07 11:05:24;;;;;;;26.37;15.63;;;13.10;99.90;;;;;;5029387;28;20420;-82
2021/10/07 11:08:11;;;;;;;26.93;15.77;;;13.10;99.90;;;;;;4997147;28;20211;-82
2021/10/07 11:10:48;;;;;;;26.00;16.13;;;13.20;99.90;;;;;;5033309;28;20191;-84
2021/10/07 11:13:23;;;;;;;24.80;15.60;;;13.20;99.90;;;;;;5051481;28;20189;-82
2021/10/07 11:15:53;;;;;;;24.10;14.63;;;13.20;99.90;;;;;;5049743;28;20247;-82
2021/10/07 11:18:20;;;;;;;24.37;14.63;;;13.20;99.90;;;;;;5032092;28;20183;-82
2021/10/07 11:20:45;;;;;;;23.27;14.70;;;13.20;99.90;;;;;;5048793;28;20221;-82
2021/10/07 11:23:12;;;;;;;22.63;14.23;;;13.20;99.90;;;;;;5031566;28;20650;-82
2021/10/07 11:25:42;;;;;;;26.80;15.40;;;13.20;99.90;;;;;;5049498;28;20638;-83
2021/10/07 11:28:09;;;;;;;24.27;14.97;;;13.30;99.90;;;;;;5032044;28;20661;-83
2021/10/07 11:30:36;;;;;;;23.43;14.73;;;13.30;99.90;;;;;;5051355;28;20262;-83
2021/10/07 11:33:03;;;;;;;26.77;14.27;;;13.40;99.90;;;;;;5033062;28;20640;-83
2021/10/07 11:35:29;;;;;;;21.87;14.27;;;13.40;99.90;;;;;;5034062;28;20183;-82
2021/10/07 11:38:06;;;;;;;21.30;14.57;;;13.30;99.90;;;;;;5037036;28;20254;-83
2021/10/07 11:40:34;;;;;;;22.77;14.03;;;13.30;99.90;;;;;;5055144;28;20652;-84
2021/10/07 11:43:02;;;;;;;22.47;14.00;;;13.40;99.90;;;;;;5035711;28;20181;-82
2021/10/07 11:45:33;;;;;;;23.27;15.03;;;13.50;99.90;;;;;;5034982;28;20714;-83
2021/10/07 11:48:01;;;;;;;22.63;14.10;;;13.50;99.90;;;;;;5019623;28;20241;-81
2021/10/07 11:50:26;;;;;;;22.73;14.30;;;13.40;99.90;;;;;;5034307;28;20514;-81
2021/10/07 11:52:55;;;;;;;23.60;15.47;;;13.50;99.90;;;;;;5039907;28;20201;-84
2021/10/07 11:55:21;;;;;;;23.03;15.37;;;13.60;99.90;;;;;;5059312;28;20565;-80
2021/10/07 11:57:50;;;;;;;21.80;13.60;;;13.70;99.90;;;;;;5046657;28;20652;-82
2021/10/07 12:00:37;;;;;;;20.03;13.77;;;13.70;99.90;;;;;;5056045;28;20183;-82
2021/10/07 12:03:08;;;;;;;20.77;13.50;;;13.70;99.90;;;;;;5040450;28;20186;-82
2021/10/07 12:05:33;;;;;;;23.60;13.97;;;13.70;99.90;;;;;;5026864;28;20233;-81
2021/10/07 12:08:03;;;;;;;21.00;13.07;;;13.80;99.90;;;;;;5046073;28;20206;-81
2021/10/07 12:10:49;;;;;;;20.10;13.27;;;13.70;99.90;;;;;;5031126;28;20182;-81
2021/10/07 12:13:17;;;;;;;20.70;13.90;;;13.70;99.90;;;;;;5038311;28;20171;-82
2021/10/07 12:16:07;;;;;;;18.40;11.93;;;13.60;99.90;;;;;;5038152;28;20221;-81
2021/10/07 12:18:34;;;;;;;18.80;12.27;;;13.60;99.90;;;;;;5038525;28;20191;-82
2021/10/07 12:21:11;;;;;;;20.10;12.90;;;13.60;99.90;;;;;;5024804;28;20171;-82
2021/10/07 12:23:55;;;;;;;18.33;11.93;;;13.70;99.90;;;;;;5028720;28;20195;-81
2021/10/07 12:26:27;;;;;;;18.50;11.40;;;13.90;99.90;;;;;;5010731;28;20202;-81
2021/10/07 12:28:53;;;;;;;16.90;11.80;;;14.00;99.90;;;;;;5043881;28;20182;-81
2021/10/07 12:31:23;;;;;;;18.37;12.23;;;14.00;99.90;;;;;;5039378;28;20610;-80
2021/10/07 12:33:56;;;;;;;18.67;11.43;;;14.10;99.90;;;;;;5024955;28;20694;-81
2021/10/07 12:36:21;;;;;;;18.40;12.37;;;14.00;99.90;;;;;;5036346;28;20240;-81